Time;durP1;ratioP1;P1;durP2;ratioP2;P2;SDS_P1;SDS_P2;PMS_P1;PMS_P2;Temp;Humidity;BMP_temperature;BMP_pressure;BME280_temperature;BME280_humidity;BME280_pressure;Samples;Min_cycle;Max_cycle;Signal;HPM_P1;HPM_P2
2022/08/17 00:00:44;;;;;;;9.80;4.67;;;;;;;20.10;100.00;99716.10;1675443;85;21494;-57
2022/08/17 00:03:17;;;;;;;7.53;4.67;;;;;;;20.08;100.00;99724.31;1676231;84;21581;-57
2022/08/17 00:05:56;;;;;;;9.63;4.53;;;;;;;20.09;100.00;99731.19;1680683;84;21000;-57
2022/08/17 00:08:29;;;;;;;9.30;5.80;;;;;;;20.07;100.00;99731.95;1680731;85;21173;-58
2022/08/17 00:10:58;;;;;;;9.97;6.27;;;;;;;20.10;100.00;99722.19;1680572;84;21020;-57
2022/08/17 00:13:34;;;;;;;9.13;5.73;;;;;;;19.99;100.00;99706.00;1680644;84;20996;-64
2022/08/17 00:16:06;;;;;;;9.33;5.63;;;;;;;20.00;100.00;99710.26;1680389;84;22263;-59
2022/08/17 00:18:33;;;;;;;13.80;4.90;;;;;;;19.98;100.00;99708.38;1681012;84;21064;-57
2022/08/17 00:21:01;;;;;;;11.20;5.07;;;;;;;20.02;100.00;99706.02;1680650;84;22246;-57
2022/08/17 00:23:29;;;;;;;9.17;5.53;;;;;;;20.04;100.00;99708.69;1653896;85;21064;-57
2022/08/17 00:25:57;;;;;;;7.43;4.80;;;;;;;20.07;100.00;99701.53;1681012;84;21091;-64
2022/08/17 00:28:24;;;;;;;6.30;3.93;;;;;;;20.10;100.00;99698.38;1680977;84;20978;-57
2022/08/17 00:30:50;;;;;;;8.43;4.43;;;;;;;20.22;100.00;99703.97;1680819;84;21039;-56
2022/08/17 00:33:24;;;;;;;11.03;4.70;;;;;;;20.27;100.00;99705.33;1680751;85;21268;-65
2022/08/17 00:35:51;;;;;;;9.23;4.87;;;;;;;20.25;100.00;99696.84;1680367;84;21110;-66
2022/08/17 00:38:18;;;;;;;8.40;4.83;;;;;;;20.21;100.00;99695.77;1680016;84;21494;-57
2022/08/17 00:40:50;;;;;;;7.07;4.70;;;;;;;20.17;100.00;99697.61;1680744;84;21044;-57
2022/08/17 00:43:37;;;;;;;9.40;4.97;;;;;;;20.22;100.00;99693.38;1680882;85;21553;-66
2022/08/17 00:46:08;;;;;;;9.73;5.10;;;;;;;20.20;100.00;99683.60;1680599;84;21815;-57
2022/08/17 00:48:36;;;;;;;8.37;4.73;;;;;;;20.12;100.00;99681.72;1680468;84;21080;-57
2022/08/17 00:51:31;;;;;;;9.07;4.80;;;;;;;20.10;100.00;99681.17;1681243;85;20980;-57
2022/08/17 00:54:09;;;;;;;8.63;4.60;;;;;;;20.11;100.00;99681.44;1681095;84;21071;-57
2022/08/17 00:56:45;;;;;;;11.80;4.63;;;;;;;20.14;100.00;99666.37;1680530;85;21052;-67
2022/08/17 00:59:15;;;;;;;6.77;4.30;;;;;;;20.21;100.00;99674.06;1680684;84;21928;-65
2022/08/17 01:01:42;;;;;;;9.20;4.33;;;;;;;20.20;100.00;99663.75;1680733;84;20893;-58
2022/08/17 01:04:10;;;;;;;13.37;5.10;;;;;;;20.20;100.00;99656.61;1679566;84;20992;-57
2022/08/17 01:06:37;;;;;;;8.57;4.97;;;;;;;20.13;100.00;99654.20;1675765;84;21486;-65
2022/08/17 01:09:04;;;;;;;10.53;4.50;;;;;;;20.20;100.00;99643.37;1675752;85;22366;-64
2022/08/17 01:11:33;;;;;;;8.53;4.50;;;;;;;20.17;100.00;99634.09;1675764;84;21074;-57
2022/08/17 01:14:00;;;;;;;6.63;4.63;;;;;;;20.14;100.00;99631.17;1675900;85;20999;-57
2022/08/17 01:16:29;;;;;;;8.07;4.20;;;;;;;20.14;100.00;99626.67;1676135;84;21076;-57
2022/08/17 01:19:06;;;;;;;12.57;5.17;;;;;;;20.12;100.00;99630.66;1675454;84;20917;-65
2022/08/17 01:21:45;;;;;;;7.33;4.97;;;;;;;20.12;100.00;99644.68;1675906;84;21837;-58
2022/08/17 01:24:12;;;;;;;10.80;5.70;;;;;;;20.05;100.00;99640.69;1675177;85;21842;-59
2022/08/17 01:26:42;;;;;;;9.17;5.00;;;;;;;19.92;100.00;99628.73;1674882;85;20980;-59
2022/08/17 01:29:09;;;;;;;8.87;5.03;;;;;;;19.78;100.00;99629.76;1657565;85;21408;-57
2022/08/17 01:31:44;;;;;;;8.60;5.47;;;;;;;19.68;100.00;99638.43;1676383;84;21543;-57
2022/08/17 01:34:12;;;;;;;7.50;5.03;;;;;;;19.60;100.00;99644.19;1676311;85;21427;-59
2022/08/17 01:36:41;;;;;;;9.03;5.30;;;;;;;19.49;100.00;99641.22;1675308;84;21553;-61
2022/08/17 01:39:13;;;;;;;11.13;5.43;;;;;;;19.38;100.00;99643.53;1676298;84;20991;-58
2022/08/17 01:41:40;;;;;;;7.83;5.20;;;;;;;19.33;100.00;99644.84;1675959;85;21478;-59
2022/08/17 01:44:07;;;;;;;9.17;4.90;;;;;;;19.29;100.00;99645.08;1675813;84;21028;-60
2022/08/17 01:46:36;;;;;;;9.80;4.93;;;;;;;19.18;100.00;99651.61;1675341;85;21142;-60
2022/08/17 01:49:08;;;;;;;7.30;5.47;;;;;;;19.15;100.00;99643.39;1676068;84;21190;-59
2022/08/17 01:51:35;;;;;;;6.73;4.80;;;;;;;19.12;100.00;99639.41;1675833;85;21012;-59
2022/08/17 01:54:09;;;;;;;8.03;5.07;;;;;;;19.04;100.00;99640.41;1675503;85;21060;-60
2022/08/17 01:56:39;;;;;;;7.43;5.10;;;;;;;18.98;100.00;99640.91;1675526;84;21531;-64
2022/08/17 01:59:06;;;;;;;7.40;5.17;;;;;;;18.88;100.00;99646.11;1676100;85;21339;-59
2022/08/17 02:01:33;;;;;;;7.63;5.03;;;;;;;18.87;100.00;99650.60;1675695;85;21272;-68
2022/08/17 02:04:00;;;;;;;7.40;5.07;;;;;;;18.87;100.00;99645.84;1675613;84;20866;-59
2022/08/17 02:06:30;;;;;;;8.47;4.90;;;;;;;18.88;100.00;99640.83;1675580;84;21148;-68
2022/08/17 02:08:57;;;;;;;7.93;4.87;;;;;;;18.82;100.00;99642.62;1675565;84;21646;-59
2022/08/17 02:11:24;;;;;;;9.20;4.93;;;;;;;18.84;100.00;99643.70;1676101;84;21111;-59
2022/08/17 02:13:52;;;;;;;8.40;5.43;;;;;;;18.81;100.00;99645.52;1675637;85;22455;-60
2022/08/17 02:16:19;;;;;;;8.93;5.30;;;;;;;18.79;100.00;99643.64;1675335;84;21553;-61
2022/08/17 02:18:47;;;;;;;9.17;5.30;;;;;;;18.81;100.00;99641.03;1674767;85;21037;-59
2022/08/17 02:21:16;;;;;;;9.50;4.73;;;;;;;18.81;100.00;99646.31;1675647;85;21167;-59
2022/08/17 02:23:45;;;;;;;8.00;4.50;;;;;;;18.80;100.00;99638.66;1675381;84;21012;-60
2022/08/17 02:26:12;;;;;;;8.57;5.03;;;;;;;18.79;100.00;99641.00;1675988;84;21220;-60
2022/08/17 02:28:39;;;;;;;8.70;5.00;;;;;;;18.77;100.00;99629.91;1675380;85;21556;-62
2022/08/17 02:31:09;;;;;;;6.70;4.43;;;;;;;18.75;100.00;99630.67;1675676;85;21071;-59
2022/08/17 02:33:36;;;;;;;9.57;4.57;;;;;;;18.69;100.00;99629.30;1675598;85;21000;-65
2022/08/17 02:36:04;;;;;;;7.03;4.70;;;;;;;18.67;100.00;99623.45;1675846;84;21194;-59
2022/08/17 02:38:31;;;;;;;9.07;4.80;;;;;;;18.65;100.00;99624.25;1675685;84;21796;-60
2022/08/17 02:40:58;;;;;;;8.97;6.07;;;;;;;18.65;100.00;99621.61;1675401;84;21020;-60
2022/08/17 02:43:26;;;;;;;9.97;5.13;;;;;;;18.70;100.00;99620.34;1675584;84;21314;-59
2022/08/17 02:45:53;;;;;;;7.50;4.80;;;;;;;18.73;100.00;99619.59;1675455;84;21514;-60
2022/08/17 02:48:21;;;;;;;10.70;6.17;;;;;;;18.76;100.00;99615.92;1675711;84;21461;-59
2022/08/17 02:50:48;;;;;;;9.13;5.87;;;;;;;18.71;100.00;99620.64;1675841;84;21141;-59
2022/08/17 02:53:15;;;;;;;10.73;6.03;;;;;;;18.74;100.00;99617.20;1675092;84;21031;-68
2022/08/17 02:55:43;;;;;;;14.43;6.63;;;;;;;18.75;100.00;99618.27;1675635;84;21464;-70
2022/08/17 02:58:12;;;;;;;10.70;6.83;;;;;;;18.78;100.00;99613.80;1675945;84;21429;-59
2022/08/17 03:00:42;;;;;;;13.47;7.27;;;;;;;18.79;100.00;99615.42;1675698;84;20956;-59
2022/08/17 03:03:12;;;;;;;11.83;6.97;;;;;;;18.86;100.00;99617.30;1676107;84;21254;-59
2022/08/17 03:05:39;;;;;;;13.40;8.17;;;;;;;18.89;100.00;99617.33;1675062;84;20996;-61
2022/08/17 03:08:06;;;;;;;12.97;7.73;;;;;;;18.90;100.00;99622.38;1676041;84;21103;-60
2022/08/17 03:10:34;;;;;;;13.03;7.80;;;;;;;18.96;100.00;99616.06;1675636;85;21768;-59
2022/08/17 03:13:01;;;;;;;12.40;6.87;;;;;;;19.06;100.00;99616.66;1675655;84;20900;-59
2022/08/17 03:15:31;;;;;;;10.30;5.90;;;;;;;19.16;100.00;99614.59;1675213;84;21164;-60
2022/08/17 03:17:58;;;;;;;9.93;6.47;;;;;;;19.29;100.00;99613.37;1675893;85;21467;-59
2022/08/17 03:20:27;;;;;;;9.90;5.33;;;;;;;19.43;100.00;99614.48;1676361;84;21012;-59
2022/08/17 03:22:55;;;;;;;9.70;5.53;;;;;;;19.55;100.00;99609.80;1675916;85;21608;-59
2022/08/17 03:25:26;;;;;;;9.10;5.13;;;;;;;19.71;100.00;99607.25;1675968;84;20905;-69
2022/08/17 03:27:53;;;;;;;10.03;5.22;;;;;;;19.87;100.00;99615.50;1675961;85;21209;-59
2022/08/17 03:30:25;;;;;;;8.50;5.63;;;;;;;20.00;100.00;99612.87;1675677;84;21389;-60
2022/08/17 03:32:53;;;;;;;8.13;6.17;;;;;;;20.12;100.00;99620.08;1675066;85;20992;-60
2022/08/17 03:35:22;;;;;;;9.85;5.40;;;;;;;20.22;100.00;99619.28;1675134;85;21012;-68
2022/08/17 03:37:49;;;;;;;13.00;5.40;;;;;;;20.28;100.00;99625.66;1675163;85;21388;-64
2022/08/17 03:40:16;;;;;;;7.23;4.57;;;;;;;20.30;100.00;99632.79;1675809;84;21350;-59
2022/08/17 03:42:44;;;;;;;9.93;5.10;;;;;;;20.40;100.00;99628.05;1675667;85;21537;-60
2022/08/17 03:45:15;;;;;;;10.80;5.93;;;;;;;20.47;100.00;99633.89;1675579;84;20988;-59
2022/08/17 03:58:47;;;;;;;8.57;5.87;;;;;;;20.83;100.00;99618.81;1675282;84;21582;-59
2022/08/17 04:01:16;;;;;;;8.70;6.30;;;;;;;21.07;100.00;99615.62;1675185;84;20889;-63
2022/08/17 04:03:43;;;;;;;11.73;6.10;;;;;;;21.20;100.00;99610.30;1675589;84;21052;-58
2022/08/17 04:06:10;;;;;;;8.83;5.70;;;;;;;21.26;100.00;99611.88;1679408;84;21265;-58
2022/08/17 04:08:38;;;;;;;8.90;6.53;;;;;;;21.30;100.00;99604.98;1680322;84;21470;-59
2022/08/17 04:11:05;;;;;;;8.23;5.97;;;;;;;21.31;100.00;99604.70;1681065;85;21493;-61
2022/08/17 04:13:33;;;;;;;8.60;6.00;;;;;;;21.30;100.00;99604.98;1680638;85;21137;-60
2022/08/17 04:16:00;;;;;;;9.10;6.10;;;;;;;21.32;100.00;99604.95;1680757;84;21048;-58
2022/08/17 04:18:27;;;;;;;10.07;6.30;;;;;;;21.37;100.00;99610.82;1680787;85;21272;-59
2022/08/17 04:20:54;;;;;;;9.33;6.30;;;;;;;21.52;100.00;99606.80;1680574;85;20940;-59
2022/08/17 04:23:21;;;;;;;10.17;5.87;;;;;;;22.07;100.00;99606.25;1653180;85;21995;-60
2022/08/17 04:25:49;;;;;;;10.70;6.57;;;;;;;22.94;100.00;99602.19;1680773;85;21944;-58
2022/08/17 04:28:18;;;;;;;6.73;5.53;;;;;;;23.54;100.00;99586.10;1680816;85;21016;-58
2022/08/17 04:30:46;;;;;;;10.87;6.23;;;;;;;23.87;100.00;99585.47;1680836;85;21172;-59
2022/08/17 04:33:20;;;;;;;10.77;5.97;;;;;;;24.11;100.00;99583.51;1680507;84;21019;-64
2022/08/17 04:35:50;;;;;;;7.60;5.60;;;;;;;24.35;100.00;99583.40;1681511;85;21119;-58
2022/08/17 04:38:21;;;;;;;8.33;6.13;;;;;;;24.85;100.00;99586.86;1681571;84;22301;-59
2022/08/17 04:43:34;;;;;;;8.78;6.10;;;;;;;26.87;100.00;99581.45;1681478;84;21382;-59
2022/08/17 04:46:05;;;;;;;6.97;5.40;;;;;;;28.10;100.00;99567.25;1681681;84;21003;-59
2022/08/17 04:48:35;;;;;;;8.80;5.25;;;;;;;29.28;100.00;99570.80;1680783;84;21078;-64
2022/08/17 04:51:08;;;;;;;8.08;5.12;;;;;;;30.45;100.00;99562.81;1680840;85;21070;-60
2022/08/17 04:53:35;;;;;;;7.67;4.87;;;;;;;31.62;100.00;99554.23;1681082;85;21497;-59
2022/08/17 04:56:02;;;;;;;7.90;4.90;;;;;;;32.70;98.07;99551.40;1681294;85;21139;-59
2022/08/17 04:58:29;;;;;;;7.12;4.75;;;;;;;33.69;82.02;99539.17;1681349;84;21521;-64
2022/08/17 05:00:56;;;;;;;6.28;4.33;;;;;;;34.61;67.41;99546.88;1680724;84;21621;-60
2022/08/17 05:03:25;;;;;;;5.08;3.75;;;;;;;35.44;59.33;99542.69;1681126;85;21377;-60
2022/08/17 05:05:52;;;;;;;8.18;4.20;;;;;;;36.04;52.37;99543.45;1678809;84;20929;-60
2022/08/17 05:08:19;;;;;;;8.15;4.08;;;;;;;36.36;48.84;99540.83;1676040;84;21263;-70
2022/08/17 05:10:46;;;;;;;7.17;4.53;;;;;;;36.67;48.55;99540.92;1675122;84;21075;-61
2022/08/17 05:13:23;;;;;;;7.53;5.22;;;;;;;37.06;49.06;99540.45;1674972;85;21349;-61
2022/08/17 05:15:58;;;;;;;7.00;5.00;;;;;;;37.57;46.47;99539.55;1676076;84;21013;-59
2022/08/17 05:18:25;;;;;;;7.80;5.28;;;;;;;38.01;45.17;99534.48;1675880;85;20964;-72
2022/08/17 05:20:52;;;;;;;6.80;4.35;;;;;;;38.15;41.96;99536.64;1675377;85;21755;-70
2022/08/17 05:23:20;;;;;;;7.33;4.55;;;;;;;37.91;40.41;99533.28;1675838;85;21288;-59
2022/08/17 05:25:49;;;;;;;9.48;4.85;;;;;;;37.56;38.99;99528.48;1676500;84;20996;-59
2022/08/17 05:28:18;;;;;;;6.53;5.13;;;;;;;37.32;42.16;99525.84;1676904;85;21105;-59
2022/08/17 05:30:46;;;;;;;12.65;5.55;;;;;;;37.36;40.84;99521.20;1675904;84;20937;-69
2022/08/17 05:33:16;;;;;;;5.92;5.28;;;;;;;37.40;41.99;99525.48;1676617;85;21940;-59
2022/08/17 05:35:48;;;;;;;7.00;5.75;;;;;;;37.64;40.72;99521.91;1676636;84;20949;-59
2022/08/17 05:38:16;;;;;;;9.03;5.92;;;;;;;37.65;39.67;99526.95;1676597;84;21419;-58
2022/08/17 05:40:43;;;;;;;12.18;5.67;;;;;;;37.73;40.29;99527.75;1675406;84;20921;-65
2022/08/17 05:43:15;;;;;;;7.42;5.58;;;;;;;37.82;41.82;99520.61;1676350;84;21359;-58
2022/08/17 05:45:56;;;;;;;10.18;5.70;;;;;;;37.85;41.38;99519.26;1675898;85;21310;-57
2022/08/17 05:48:24;;;;;;;6.78;5.10;;;;;;;37.91;41.12;99515.59;1675475;85;20992;-66
2022/08/17 05:51:25;;;;;;;8.50;5.40;;;;;;;37.70;40.21;99513.59;1675918;85;21016;-58
2022/08/17 05:54:38;;;;;;;8.78;5.55;;;;;;;37.54;39.98;99510.41;1676330;84;21005;-65
2022/08/17 05:57:24;;;;;;;8.03;5.50;;;;;;;37.65;40.06;99508.50;1594987;89;21083;-58
2022/08/17 06:00:00;;;;;;;7.40;5.00;;;;;;;37.67;37.29;99505.61;1662450;85;22006;-58
2022/08/17 06:02:35;;;;;;;7.33;5.25;;;;;;;37.65;36.48;99507.91;1676619;84;21007;-57
2022/08/17 06:05:36;;;;;;;8.23;5.42;;;;;;;37.44;36.29;99503.20;1674891;85;20897;-66
2022/08/17 06:08:24;;;;;;;7.37;5.58;;;;;;;37.19;35.76;99502.28;1675819;84;20987;-59
2022/08/17 06:11:16;;;;;;;6.97;4.97;;;;;;;36.86;35.50;99496.43;1675926;85;21087;-58
2022/08/17 06:14:14;;;;;;;7.78;5.40;;;;;;;36.35;36.72;99500.70;1675732;85;21165;-67
2022/08/17 06:16:44;;;;;;;7.78;5.80;;;;;;;36.19;36.36;99498.83;1675762;84;20981;-58
2022/08/17 06:19:40;;;;;;;9.55;6.20;;;;;;;35.78;36.29;99503.63;1675671;85;20949;-66
2022/08/17 06:22:07;;;;;;;8.75;6.20;;;;;;;35.42;37.49;99501.06;1676086;84;21130;-57
2022/08/17 06:24:42;;;;;;;8.98;5.90;;;;;;;35.17;38.14;99508.86;1656590;85;21020;-58
2022/08/17 06:27:40;;;;;;;7.58;5.80;;;;;;;35.15;39.29;99504.37;1673919;85;22214;-59
2022/08/17 06:30:19;;;;;;;9.33;6.72;;;;;;;35.33;40.18;99506.74;1675830;85;21534;-57
2022/08/17 06:32:48;;;;;;;10.30;5.80;;;;;;;35.58;39.54;99508.44;1674997;85;21059;-63
2022/08/17 06:35:20;;;;;;;10.85;7.17;;;;;;;35.72;39.01;99502.38;1675435;85;20985;-58
2022/08/17 06:38:04;;;;;;;9.90;6.45;;;;;;;35.85;39.47;99505.64;1676203;84;21051;-58
2022/08/17 06:41:02;;;;;;;8.93;6.30;;;;;;;35.94;38.37;99506.69;1636680;85;21456;-57
2022/08/17 06:44:02;;;;;;;10.08;6.50;;;;;;;35.83;37.75;99507.92;1675687;85;28891;-63
2022/08/17 06:46:38;;;;;;;11.28;6.70;;;;;;;35.69;37.23;99496.95;1675611;84;21956;-56
2022/08/17 06:49:32;;;;;;;7.55;5.17;;;;;;;35.73;35.86;99497.77;1675204;85;21033;-58
2022/08/17 06:52:12;;;;;;;9.70;5.40;;;;;;;35.77;35.13;99488.52;1675324;84;20901;-57
2022/08/17 06:55:04;;;;;;;8.08;5.60;;;;;;;35.66;34.71;99484.13;1675670;85;21922;-57
2022/08/17 06:57:35;;;;;;;6.97;5.78;;;;;;;35.58;34.67;99488.69;1675384;85;20905;-57
2022/08/17 07:00:15;;;;;;;;;;;;;;;35.72;34.82;99486.11;1678400;85;21470;-57
2022/08/17 07:02:56;;;;;;;10.03;6.10;;;;;;;35.63;35.09;99486.22;1675956;85;20144;-57
2022/08/17 07:05:43;;;;;;;9.23;5.90;;;;;;;35.79;35.61;99490.26;1675776;85;21079;-57
2022/08/17 07:08:52;;;;;;;10.68;6.95;;;;;;;36.04;34.95;99497.33;1675662;84;21444;-57
2022/08/17 07:11:54;;;;;;;10.28;6.35;;;;;;;36.18;35.34;99491.27;1675583;84;21003;-58
2022/08/17 07:14:37;;;;;;;10.88;6.78;;;;;;;36.28;34.56;99497.92;1675748;84;20985;-57
2022/08/17 07:17:14;;;;;;;13.62;6.78;;;;;;;36.26;34.00;99498.89;1675299;85;21114;-58
2022/08/17 07:19:44;;;;;;;11.95;5.92;;;;;;;36.41;34.76;99492.42;1675510;85;21068;-57
2022/08/17 07:22:34;;;;;;;10.38;5.92;;;;;;;36.68;34.42;99489.55;1675828;85;21301;-59
2022/08/17 07:25:07;;;;;;;7.62;5.80;;;;;;;37.16;33.25;99486.73;1674070;85;20972;-59
2022/08/17 07:27:41;;;;;;;9.70;5.75;;;;;;;37.76;32.03;99488.14;1675876;85;21818;-59
2022/08/17 07:30:23;;;;;;;10.60;6.33;;;;;;;38.20;31.41;99483.76;1675560;85;20940;-57
2022/08/17 07:32:57;;;;;;;9.33;6.15;;;;;;;38.72;30.47;99492.31;1675374;85;21012;-58
2022/08/17 07:35:40;;;;;;;10.00;6.42;;;;;;;39.05;30.20;99494.39;1676219;84;21237;-57
2022/08/17 07:38:22;;;;;;;12.07;7.05;;;;;;;38.97;30.31;99488.77;1675783;84;21019;-58
2022/08/17 07:41:05;;;;;;;8.35;6.35;;;;;;;39.23;30.91;99495.11;1675478;85;21011;-57
2022/08/17 07:43:43;;;;;;;9.28;5.85;;;;;;;39.65;29.84;99491.42;1675669;85;22035;-57
2022/08/17 07:49:18;;;;;;;10.65;5.67;;;;;;;40.57;27.65;99489.23;1662012;85;22542;-59
2022/08/17 07:51:54;;;;;;;9.65;6.20;;;;;;;41.09;26.96;99492.43;1675094;85;21572;-57
2022/08/17 07:54:35;;;;;;;9.53;6.12;;;;;;;41.39;25.99;99490.89;1675347;85;21023;-59
2022/08/17 07:57:21;;;;;;;10.30;5.67;;;;;;;41.50;26.76;99495.66;1675362;84;21514;-64
2022/08/17 08:00:02;;;;;;;7.25;5.03;;;;;;;41.85;25.81;99492.27;1675443;85;20944;-59
2022/08/17 08:02:40;;;;;;;8.85;6.03;;;;;;;42.00;24.39;99483.41;1676045;85;21796;-57
2022/08/17 08:05:24;;;;;;;9.35;5.45;;;;;;;41.91;24.69;99482.41;1675911;85;22026;-57
2022/08/17 08:08:03;;;;;;;10.72;6.30;;;;;;;41.78;24.88;99487.03;1687957;84;22387;-57
2022/08/17 08:10:41;;;;;;;9.88;4.90;;;;;;;41.93;25.45;99489.59;1689922;84;20999;-58
2022/08/17 08:13:26;;;;;;;8.65;5.12;;;;;;;42.16;24.92;99482.75;1690216;84;20940;-57
2022/08/17 08:15:56;;;;;;;7.80;5.15;;;;;;;42.23;24.62;99485.98;1690205;84;21156;-65
2022/08/17 08:18:38;;;;;;;8.88;5.30;;;;;;;42.21;25.27;99485.03;1663306;84;20992;-57
2022/08/17 08:21:11;;;;;;;8.20;5.65;;;;;;;42.33;24.81;99481.55;1663474;84;21133;-57
2022/08/17 08:23:56;;;;;;;8.60;5.45;;;;;;;42.46;24.83;99476.40;1688504;84;21079;-65
2022/08/17 08:26:34;;;;;;;9.55;5.85;;;;;;;42.46;25.14;99479.14;1689697;84;21044;-57
2022/08/17 08:29:27;;;;;;;6.58;4.33;;;;;;;42.60;25.06;99479.48;1689779;84;21529;-57
2022/08/17 08:32:14;;;;;;;5.70;4.75;;;;;;;42.63;24.50;99486.88;1689960;84;21082;-58
2022/08/17 08:35:19;;;;;;;7.50;4.12;;;;;;;42.60;24.48;99477.34;1690649;84;21121;-57
2022/08/17 08:37:57;;;;;;;8.93;5.20;;;;;;;42.55;24.49;99474.50;1690854;84;21024;-56
2022/08/17 08:41:18;;;;;;;6.83;4.70;;;;;;;42.54;24.24;99471.56;1690430;84;21508;-60
2022/08/17 08:44:25;;;;;;;7.92;5.53;;;;;;;42.45;24.52;99469.38;1690085;84;21290;-61
2022/08/17 08:47:28;;;;;;;6.72;4.47;;;;;;;42.40;24.08;99467.13;1690271;84;20936;-58
2022/08/17 08:50:41;;;;;;;10.95;4.75;;;;;;;42.25;24.83;99467.20;1658243;84;21081;-56
2022/08/17 08:53:36;;;;;;;9.35;5.17;;;;;;;42.34;24.64;99472.91;1689595;84;22199;-58
2022/08/17 08:56:13;;;;;;;8.58;5.45;;;;;;;42.38;24.50;99471.47;1690180;84;20967;-64
2022/08/17 08:59:01;;;;;;;7.30;4.12;;;;;;;42.08;25.01;99473.71;1663349;84;21347;-57
2022/08/17 09:01:45;;;;;;;5.35;4.03;;;;;;;41.93;24.71;99477.27;1690126;84;21018;-57
2022/08/17 09:04:44;;;;;;;8.15;3.92;;;;;;;41.67;24.99;99478.20;1690163;84;21010;-58
2022/08/17 09:07:47;;;;;;;8.85;4.55;;;;;;;41.56;25.28;99472.91;1682708;84;21103;-65
2022/08/17 09:10:24;;;;;;;8.38;3.98;;;;;;;41.51;25.26;99469.84;1675132;85;20999;-65
2022/08/17 09:13:02;;;;;;;6.10;3.90;;;;;;;41.26;25.90;99477.78;1675340;84;21700;-58
2022/08/17 09:15:33;;;;;;;;;;;;;;;41.26;26.16;99473.67;1678302;84;20999;-56
2022/08/17 09:18:14;;;;;;;9.85;4.53;;;;;;;41.03;26.38;99467.52;1675782;85;20140;-64
2022/08/17 09:20:58;;;;;;;6.65;4.17;;;;;;;40.76;26.53;99463.28;1675816;84;21403;-56
2022/08/17 09:23:36;;;;;;;8.33;4.17;;;;;;;40.70;26.74;99461.42;1676030;85;21102;-57
2022/08/17 09:26:15;;;;;;;5.15;3.30;;;;;;;40.77;26.69;99465.45;1675681;85;21299;-56
2022/08/17 09:28:45;;;;;;;8.53;4.53;;;;;;;41.00;26.73;99462.09;1642724;84;21047;-58
2022/08/17 09:31:24;;;;;;;7.05;5.37;;;;;;;41.39;26.48;99461.58;1675702;85;20948;-64
2022/08/17 09:33:53;;;;;;;8.58;4.12;;;;;;;41.53;26.12;99458.68;1676048;85;21078;-57
2022/08/17 09:36:33;;;;;;;6.33;3.55;;;;;;;41.27;26.02;99457.44;1676133;85;21530;-56
2022/08/17 09:39:08;;;;;;;4.08;3.05;;;;;;;41.15;25.68;99456.62;1675582;85;21235;-64
2022/08/17 09:41:57;;;;;;;5.95;3.80;;;;;;;41.38;25.99;99455.94;1676100;85;21531;-56
2022/08/17 09:44:50;;;;;;;6.45;3.50;;;;;;;41.61;25.50;99449.78;1666765;85;20980;-65
2022/08/17 09:47:29;;;;;;;7.90;4.97;;;;;;;41.74;25.75;99443.13;1676540;85;20932;-57
2022/08/17 09:50:08;;;;;;;4.70;3.80;;;;;;;41.95;24.94;99446.93;1676562;84;20992;-57
2022/08/17 09:52:37;;;;;;;10.00;2.72;;;;;;;41.97;23.79;99447.88;1676619;84;22111;-56
2022/08/17 09:55:05;;;;;;;6.47;3.27;;;;;;;41.96;23.93;99448.47;1676615;84;21070;-57
2022/08/17 09:58:05;;;;;;;6.00;3.72;;;;;;;41.99;23.66;99441.40;1676406;84;21019;-56
2022/08/17 10:00:38;;;;;;;5.45;3.80;;;;;;;41.75;24.36;99442.73;1676353;85;21080;-57
2022/08/17 10:03:29;;;;;;;5.72;3.52;;;;;;;41.36;24.33;99449.31;1676336;84;21157;-57
2022/08/17 10:06:14;;;;;;;7.50;3.33;;;;;;;41.16;23.95;99449.20;1673662;85;21789;-57
2022/08/17 10:08:51;;;;;;;7.75;2.75;;;;;;;40.79;24.73;99446.08;1690231;84;21034;-57
2022/08/17 10:14:37;;;;;;;9.83;4.70;;;;;;;41.07;23.79;99451.07;1689776;84;20955;-58
2022/08/17 10:17:48;;;;;;;6.37;4.55;;;;;;;41.20;23.90;99442.49;1690657;84;21393;-57
2022/08/17 10:26:36;;;;;;;11.05;4.25;;;;;;;41.09;24.80;99450.05;1690422;84;21007;-59
2022/08/17 10:29:13;;;;;;;6.03;4.28;;;;;;;40.98;24.46;99448.81;1690438;84;21086;-62
2022/08/17 10:31:45;;;;;;;6.72;4.40;;;;;;;40.98;25.19;99449.38;1690465;84;21082;-56
2022/08/17 10:34:37;;;;;;;5.42;4.20;;;;;;;41.06;25.31;99446.77;1691106;84;21151;-56
2022/08/17 10:37:29;;;;;;;6.95;5.15;;;;;;;41.14;25.66;99447.45;1690253;84;21150;-57
2022/08/17 10:40:24;;;;;;;6.50;3.87;;;;;;;41.21;25.96;99445.40;1651171;84;21047;-57
2022/08/17 10:43:05;;;;;;;8.33;4.12;;;;;;;41.07;24.87;99451.84;1689183;84;21557;-57
2022/08/17 10:46:10;;;;;;;8.15;3.70;;;;;;;41.03;25.33;99445.65;1690180;84;21020;-56
2022/08/17 10:48:37;;;;;;;6.80;3.90;;;;;;;41.13;25.21;99452.74;1690705;84;21237;-57
2022/08/17 10:51:36;;;;;;;7.65;3.27;;;;;;;41.22;24.88;99446.97;1690127;84;21012;-56
2022/08/17 10:54:02;;;;;;;6.30;3.42;;;;;;;41.35;24.77;99446.41;1690823;84;20988;-57
2022/08/17 10:56:45;;;;;;;6.97;3.55;;;;;;;41.33;24.71;99450.34;1690408;84;21008;-64
2022/08/17 10:59:37;;;;;;;5.70;3.83;;;;;;;41.30;25.22;99447.65;1690665;84;20972;-57
2022/08/17 11:02:15;;;;;;;6.95;3.33;;;;;;;41.14;24.38;99447.45;1689984;84;21272;-65
2022/08/17 11:05:05;;;;;;;6.67;3.72;;;;;;;40.95;24.47;99453.70;1690540;84;21507;-56
2022/08/17 11:07:56;;;;;;;7.70;3.58;;;;;;;40.87;25.04;99446.00;1689593;84;21012;-58
2022/08/17 11:11:05;;;;;;;9.78;3.40;;;;;;;40.78;24.72;99444.53;1690795;84;22213;-57
2022/08/17 11:14:12;;;;;;;5.87;3.52;;;;;;;40.67;24.37;99447.20;1690336;84;21251;-56
2022/08/17 11:17:36;;;;;;;7.20;3.77;;;;;;;40.66;23.86;99445.66;1689930;84;21358;-57
2022/08/17 11:20:38;;;;;;;11.43;4.72;;;;;;;40.37;24.97;99437.12;1689909;84;21486;-56
2022/08/17 11:23:27;;;;;;;;;;;;;;;39.92;25.73;99445.09;1692606;84;20924;-57
2022/08/17 11:25:56;;;;;;;5.45;4.20;;;;;;;39.77;26.41;99443.83;1690432;84;20165;-56
2022/08/17 11:28:27;;;;;;;6.12;3.77;;;;;;;39.64;26.51;99443.50;1690754;84;21526;-55
2022/08/17 11:30:57;;;;;;;;;;;;;;;39.50;26.56;99446.31;1692810;84;21248;-57
2022/08/17 11:33:35;;;;;;;6.07;4.03;;;;;;;39.36;26.72;99441.73;1690047;84;20423;-55
2022/08/17 11:36:34;;;;;;;7.95;4.65;;;;;;;39.34;27.49;99436.48;1690936;84;21086;-56
2022/08/17 11:39:30;;;;;;;6.28;4.50;;;;;;;39.48;27.08;99434.27;1690456;84;21897;-55
2022/08/17 11:42:04;;;;;;;8.78;4.85;;;;;;;39.50;27.69;99438.13;1690287;84;21046;-64
2022/08/17 11:44:43;;;;;;;7.90;4.62;;;;;;;39.51;27.26;99432.85;1690775;84;21460;-57
2022/08/17 11:53:42;;;;;;;9.45;4.30;;;;;;;39.38;26.55;99430.41;1690704;84;21431;-56
2022/08/17 11:56:30;;;;;;;7.92;4.30;;;;;;;39.30;26.65;99435.13;1690903;84;20948;-60
2022/08/17 11:58:59;;;;;;;6.62;4.15;;;;;;;39.22;27.20;99428.13;1690767;84;21593;-56
2022/08/17 12:01:31;;;;;;;6.75;4.08;;;;;;;39.25;27.02;99427.94;1690491;84;21004;-57
2022/08/17 12:04:22;;;;;;;6.70;4.40;;;;;;;39.30;27.30;99431.63;1690022;84;21097;-58
2022/08/17 12:06:53;;;;;;;7.50;4.10;;;;;;;39.26;26.89;99433.01;1690333;84;21436;-56
2022/08/17 12:09:25;;;;;;;8.68;4.72;;;;;;;39.17;27.14;99432.62;1690901;84;21014;-64
2022/08/17 12:12:12;;;;;;;7.97;4.40;;;;;;;39.12;27.99;99433.04;1690265;84;22405;-56
2022/08/17 12:14:41;;;;;;;6.87;4.53;;;;;;;38.93;28.23;99428.83;1690646;84;21501;-56
2022/08/17 12:17:12;;;;;;;6.47;4.30;;;;;;;38.81;28.61;99432.77;1690217;84;21000;-64
2022/08/17 12:19:41;;;;;;;9.58;4.67;;;;;;;38.81;28.84;99430.05;1663844;84;21030;-56
2022/08/17 12:22:16;;;;;;;7.87;4.55;;;;;;;38.84;28.94;99435.30;1690095;84;20996;-56
2022/08/17 12:25:04;;;;;;;6.42;4.67;;;;;;;38.97;29.19;99437.00;1690567;84;21876;-57
2022/08/17 12:27:33;;;;;;;7.22;4.08;;;;;;;39.06;29.02;99429.16;1690442;84;21007;-64
2022/08/17 12:30:04;;;;;;;6.58;4.58;;;;;;;39.02;28.74;99431.13;1690683;84;21081;-56
2022/08/17 12:32:33;;;;;;;6.40;4.30;;;;;;;38.80;29.05;99431.22;1690677;84;20992;-56
2022/08/17 12:35:00;;;;;;;6.17;4.62;;;;;;;38.67;29.35;99425.96;1689708;84;21550;-57
2022/08/17 12:37:31;;;;;;;8.45;4.75;;;;;;;38.62;29.94;99430.45;1690847;84;22570;-56
2022/08/17 12:40:03;;;;;;;6.90;4.80;;;;;;;38.68;29.91;99424.78;1690329;84;21007;-58
2022/08/17 12:42:36;;;;;;;6.10;5.50;;;;;;;38.73;29.65;99427.71;1689845;84;21000;-56
2022/08/17 12:45:07;;;;;;;7.28;5.00;;;;;;;38.69;29.60;99429.08;1689558;84;21051;-57